Time;durP1;ratioP1;P1;durP2;ratioP2;P2;SDS_P1;SDS_P2;PMS_P1;PMS_P2;Temp;Humidity;BMP_temperature;BMP_pressure;BME280_temperature;BME280_humidity;BME280_pressure;Samples;Min_cycle;Max_cycle;Signal;HPM_P1;HPM_P2
2022/07/17 00:01:02;;;;;;;20.35;1.58;;;;;;;-144.47;44.31;53207.66;4983575;28;20027;-65
2022/07/17 00:03:27;;;;;;;8.63;1.50;;;;;;;-144.47;44.43;53225.53;4970779;28;20041;-66
2022/07/17 00:05:52;;;;;;;4.18;1.00;;;;;;;-144.47;44.42;53187.78;4971841;28;20110;-66
2022/07/17 00:08:18;;;;;;;5.85;1.17;;;;;;;-144.47;44.46;53189.78;4970736;28;20054;-66
2022/07/17 00:10:43;;;;;;;6.18;1.40;;;;;;;-144.47;44.65;53203.69;4979678;28;20080;-67
2022/07/17 00:13:09;;;;;;;4.57;1.13;;;;;;;-144.47;44.64;53189.78;4983758;28;20023;-67
2022/07/17 00:15:35;;;;;;;7.80;1.42;;;;;;;-144.47;44.70;53225.53;4972088;28;20511;-66
2022/07/17 00:18:01;;;;;;;9.70;1.45;;;;;;;-144.47;44.73;53205.66;4988772;28;20108;-65
2022/07/17 00:20:28;;;;;;;5.03;1.30;;;;;;;-144.47;44.83;53209.66;4977942;28;20081;-65
2022/07/17 00:22:55;;;;;;;7.85;1.35;;;;;;;-144.47;44.86;53205.66;4984179;28;20019;-65
2022/07/17 00:25:21;;;;;;;6.65;1.27;;;;;;;-144.47;44.98;53207.66;4971523;28;20270;-64
2022/07/17 00:27:46;;;;;;;11.77;1.40;;;;;;;-144.47;44.91;53183.81;4988811;28;20269;-64
2022/07/17 00:30:12;;;;;;;5.35;1.25;;;;;;;-144.47;45.03;53235.47;4977202;28;20030;-66
2022/07/17 00:32:38;;;;;;;4.30;1.40;;;;;;;-144.47;45.16;53233.47;4977119;28;20022;-65
2022/07/17 00:35:04;;;;;;;5.47;1.13;;;;;;;-144.47;45.12;53231.50;4987619;28;20058;-65
2022/07/17 00:37:29;;;;;;;5.43;1.33;;;;;;;-144.47;45.25;53215.59;4983542;28;20033;-67
2022/07/17 00:39:55;;;;;;;6.78;1.48;;;;;;;-144.47;45.59;53233.47;4998436;28;20038;-66
2022/07/17 00:42:20;;;;;;;9.27;1.02;;;;;;;-144.47;45.68;53225.53;4985402;28;20494;-66
2022/07/17 00:44:46;;;;;;;6.68;1.27;;;;;;;-144.47;45.90;53193.75;4986934;28;20062;-63
2022/07/17 00:47:13;;;;;;;9.70;1.20;;;;;;;-144.47;46.23;53217.59;4978317;28;20027;-66
2022/07/17 00:49:39;;;;;;;8.88;1.88;;;;;;;-144.47;46.30;53191.78;4983102;28;20077;-65
2022/07/17 00:52:04;;;;;;;7.00;1.48;;;;;;;-144.47;46.57;53205.66;4986467;28;20423;-66
2022/07/17 00:54:30;;;;;;;6.43;1.38;;;;;;;-144.47;46.41;53193.75;4989142;28;20093;-64
2022/07/17 00:56:57;;;;;;;9.25;1.35;;;;;;;-144.47;46.61;53227.53;4976449;28;20033;-65
2022/07/17 00:59:24;;;;;;;20.52;1.40;;;;;;;-144.47;46.62;53215.59;4989038;28;20073;-65
2022/07/17 01:01:50;;;;;;;6.00;1.55;;;;;;;-144.47;46.47;53223.56;4984248;28;20033;-64
2022/07/17 01:04:15;;;;;;;11.13;1.20;;;;;;;-144.47;46.59;53225.53;4970113;28;20408;-66
2022/07/17 01:06:40;;;;;;;5.72;1.20;;;;;;;-144.47;46.75;53253.34;4982625;28;20516;-65
2022/07/17 01:09:10;;;;;;;11.88;1.55;;;;;;;-144.47;46.90;53233.47;4982498;28;20117;-64
2022/07/17 01:11:36;;;;;;;7.85;1.50;;;;;;;-144.47;47.02;53253.34;4972016;28;20022;-66
2022/07/17 01:14:01;;;;;;;18.63;2.15;;;;;;;-144.47;47.00;53269.22;4982563;28;20030;-65
2022/07/17 01:16:27;;;;;;;8.07;1.42;;;;;;;-144.47;47.08;53225.53;4988038;28;20041;-65
2022/07/17 01:18:53;;;;;;;5.20;1.48;;;;;;;-144.47;47.22;53213.63;4977141;28;20515;-65
2022/07/17 01:21:18;;;;;;;7.15;1.40;;;;;;;-144.47;47.40;53223.56;4976325;28;20422;-66
2022/07/17 01:23:44;;;;;;;11.73;1.50;;;;;;;-144.47;47.54;53219.56;4989665;28;20026;-66
2022/07/17 01:26:09;;;;;;;13.02;1.48;;;;;;;-144.47;47.75;53225.53;4975248;28;20026;-65
2022/07/17 01:28:35;;;;;;;8.50;1.40;;;;;;;-144.47;47.77;53225.53;4989142;28;20026;-67
2022/07/17 01:31:03;;;;;;;7.13;1.70;;;;;;;-144.47;47.92;53251.34;4986840;28;20096;-66
2022/07/17 01:33:28;;;;;;;7.85;1.48;;;;;;;-144.47;48.06;53237.44;4987075;28;20154;-66
2022/07/17 01:35:54;;;;;;;8.73;2.80;;;;;;;-144.47;47.99;53217.59;4975830;28;20042;-64
2022/07/17 01:38:19;;;;;;;7.43;1.77;;;;;;;-144.47;48.43;53205.66;4987211;28;20018;-65
2022/07/17 01:40:45;;;;;;;12.23;1.85;;;;;;;-144.47;48.74;53233.47;4984109;28;20502;-67
2022/07/17 01:43:11;;;;;;;4.53;1.30;;;;;;;-144.47;48.77;53245.41;4970464;28;20030;-66
2022/07/17 01:45:36;;;;;;;9.30;1.60;;;;;;;-144.47;49.33;53261.28;4973817;28;20049;-63
2022/07/17 01:48:02;;;;;;;8.57;1.73;;;;;;;-144.47;49.71;53211.63;4969751;28;20023;-65
2022/07/17 01:50:27;;;;;;;12.40;2.05;;;;;;;-144.47;49.98;53271.22;4987342;28;20034;-67
2022/07/17 01:52:52;;;;;;;8.30;1.60;;;;;;;-144.47;50.16;53201.69;5002512;28;20455;-65
2022/07/17 01:55:18;;;;;;;5.90;1.27;;;;;;;-144.47;50.03;53197.72;4985081;28;20237;-66
2022/07/17 01:57:43;;;;;;;9.57;1.88;;;;;;;-144.47;50.23;53247.38;4982223;28;20034;-64
2022/07/17 02:00:14;;;;;;;9.75;1.63;;;;;;;-144.47;50.19;53271.22;4989850;28;20029;-64
2022/07/17 02:02:39;;;;;;;8.73;1.50;;;;;;;-144.47;50.22;53229.50;4975810;28;20023;-66
2022/07/17 02:05:05;;;;;;;7.00;1.30;;;;;;;-144.47;50.37;53225.53;4969938;28;20404;-63
2022/07/17 02:07:32;;;;;;;7.53;1.65;;;;;;;-144.47;50.23;53239.44;4968755;28;20033;-65
2022/07/17 02:09:57;;;;;;;7.97;1.70;;;;;;;-144.47;50.15;53241.44;4971164;28;20373;-66
2022/07/17 02:12:22;;;;;;;7.50;1.58;;;;;;;-144.47;50.12;53219.56;4988666;28;20484;-66
2022/07/17 02:14:48;;;;;;;7.82;1.35;;;;;;;-144.47;50.08;53241.44;4971770;28;20030;-66
2022/07/17 02:17:13;;;;;;;6.18;1.20;;;;;;;-144.47;50.06;53239.44;4986079;28;20030;-66
2022/07/17 02:19:38;;;;;;;6.85;1.27;;;;;;;-144.47;50.07;53221.56;4991592;28;20084;-63
2022/07/17 02:22:04;;;;;;;5.80;1.33;;;;;;;-144.47;50.02;53253.34;4993060;28;20296;-63
2022/07/17 02:24:29;;;;;;;6.65;1.38;;;;;;;-144.47;50.11;53243.41;4974442;28;20105;-66
2022/07/17 02:26:55;;;;;;;8.70;1.58;;;;;;;-144.47;50.30;53229.50;4972138;28;20258;-65
2022/07/17 02:29:20;;;;;;;6.18;1.77;;;;;;;-144.47;50.50;53275.19;4972720;28;20395;-66
2022/07/17 02:31:45;;;;;;;4.20;1.48;;;;;;;-144.47;51.02;53259.31;4973597;28;20073;-66
2022/07/17 02:34:11;;;;;;;3.53;1.15;;;;;;;-144.47;51.07;53225.53;4984043;28;20491;-67
2022/07/17 02:36:36;;;;;;;7.13;1.30;;;;;;;-144.47;51.27;53229.50;4985507;28;20093;-66
2022/07/17 02:39:02;;;;;;;6.68;1.50;;;;;;;-144.47;51.47;53247.38;4973881;28;20400;-67
2022/07/17 02:41:28;;;;;;;9.02;1.50;;;;;;;-144.47;51.74;53249.38;4985105;28;20058;-66
2022/07/17 02:43:53;;;;;;;7.57;1.38;;;;;;;-144.47;51.76;53271.22;4977757;28;20030;-64
2022/07/17 02:46:18;;;;;;;11.40;1.30;;;;;;;-144.47;51.83;53269.22;4973312;28;20053;-65
2022/07/17 02:48:44;;;;;;;3.15;1.20;;;;;;;-144.47;52.07;53229.50;4978467;28;20273;-65
2022/07/17 02:51:09;;;;;;;7.32;1.45;;;;;;;-144.47;52.27;53259.31;4990962;28;20034;-65
2022/07/17 02:53:35;;;;;;;7.85;1.70;;;;;;;-144.47;52.57;53279.16;5005176;28;20442;-64
2022/07/17 02:56:01;;;;;;;5.88;1.38;;;;;;;-144.47;52.77;53277.19;4991372;28;20573;-65
2022/07/17 02:58:26;;;;;;;9.40;2.58;;;;;;;-144.47;52.75;53273.22;4986691;28;20524;-68
2022/07/17 03:00:52;;;;;;;6.47;1.90;;;;;;;-144.47;52.76;53265.25;4988147;28;20097;-66
2022/07/17 03:03:19;;;;;;;9.20;1.63;;;;;;;-144.47;52.62;53249.38;4973797;28;20023;-65
2022/07/17 03:05:45;;;;;;;9.35;1.50;;;;;;;-144.47;52.90;53251.34;4982950;28;20399;-66
2022/07/17 03:08:10;;;;;;;7.30;1.92;;;;;;;-144.47;53.11;53261.28;4986841;28;20019;-66
2022/07/17 03:10:36;;;;;;;11.27;1.42;;;;;;;-144.47;52.82;53243.41;4982610;28;20062;-65
2022/07/17 03:15:29;;;;;;;11.82;1.92;;;;;;;-144.47;52.64;53283.13;4998965;28;20429;-67
2022/07/17 03:17:54;;;;;;;7.75;1.83;;;;;;;-144.47;52.83;53281.16;4979259;28;20026;-63
2022/07/17 03:20:19;;;;;;;8.27;2.00;;;;;;;-144.47;52.83;53261.28;4991476;28;20047;-66
2022/07/17 03:22:45;;;;;;;3.13;1.33;;;;;;;-144.47;52.94;53243.41;4983337;28;20506;-66
2022/07/17 03:25:10;;;;;;;7.85;1.67;;;;;;;-144.47;52.95;53253.34;4989587;28;20022;-66
2022/07/17 03:27:35;;;;;;;4.43;1.52;;;;;;;-144.47;53.04;53243.41;4991688;28;20029;-66
2022/07/17 03:30:01;;;;;;;8.95;1.58;;;;;;;-144.47;53.06;53245.41;5011477;28;20033;-62
2022/07/17 03:32:26;;;;;;;9.68;1.70;;;;;;;-144.47;53.17;53237.44;5008609;28;20105;-65
2022/07/17 03:34:52;;;;;;;5.70;1.70;;;;;;;-144.47;53.26;53259.31;5002074;28;20049;-65
2022/07/17 03:37:17;;;;;;;10.82;2.25;;;;;;;-144.47;53.18;53281.16;5005309;28;20041;-64
2022/07/17 03:39:42;;;;;;;16.27;2.17;;;;;;;-144.47;53.31;53217.59;4971303;28;20420;-66
2022/07/17 03:42:08;;;;;;;8.75;1.70;;;;;;;-144.47;53.36;53277.19;4983740;28;20019;-66
2022/07/17 03:44:33;;;;;;;10.18;1.65;;;;;;;-144.47;53.56;53277.19;4982434;28;20042;-65
2022/07/17 03:47:01;;;;;;;6.88;1.85;;;;;;;-144.47;53.38;53275.19;4990896;28;20023;-66
2022/07/17 03:49:27;;;;;;;6.90;1.70;;;;;;;-144.47;53.50;53261.28;4991625;28;20201;-63
2022/07/17 03:51:52;;;;;;;7.10;1.60;;;;;;;-144.47;53.51;53269.22;4981584;28;20491;-65
2022/07/17 03:54:18;;;;;;;4.40;1.48;;;;;;;-144.47;53.58;53245.41;5009233;28;20029;-66
2022/07/17 03:56:43;;;;;;;11.25;2.45;;;;;;;-144.47;53.61;53253.34;4980183;28;20022;-64
2022/07/17 03:59:08;;;;;;;10.13;2.13;;;;;;;-144.47;53.53;53237.44;4991221;28;20028;-63
2022/07/17 04:01:34;;;;;;;12.75;2.05;;;;;;;-144.47;53.63;53235.47;5008088;28;20037;-66
2022/07/17 04:03:59;;;;;;;9.07;2.10;;;;;;;-144.47;53.57;53279.16;5000954;28;20403;-64
2022/07/17 04:06:24;;;;;;;12.55;1.92;;;;;;;-144.47;53.55;53233.47;5007451;28;20025;-66
2022/07/17 04:08:50;;;;;;;7.13;1.58;;;;;;;-144.47;53.63;53261.28;4991727;28;20108;-64
2022/07/17 04:11:15;;;;;;;6.97;2.00;;;;;;;-144.47;53.60;53249.38;4981495;28;20022;-66
2022/07/17 04:13:40;;;;;;;7.78;1.65;;;;;;;-144.47;53.51;53235.47;4984254;28;20389;-63
2022/07/17 04:16:06;;;;;;;12.90;1.80;;;;;;;-144.47;53.82;53213.63;4989756;28;20396;-65
2022/07/17 04:18:35;;;;;;;3.90;1.40;;;;;;;-144.47;53.66;53233.47;4990756;28;20035;-63
2022/07/17 04:21:09;;;;;;;2.65;1.35;;;;;;;-144.47;53.80;53245.41;5000735;28;20073;-64
2022/07/17 04:23:35;;;;;;;8.23;2.38;;;;;;;-144.47;53.75;53277.19;4978928;28;20030;-63
2022/07/17 04:26:01;;;;;;;8.32;1.48;;;;;;;-144.47;54.10;53247.38;4995982;28;20034;-62
2022/07/17 04:28:27;;;;;;;12.45;2.13;;;;;;;-144.47;54.35;53231.50;4992120;28;20084;-64
2022/07/17 04:30:52;;;;;;;12.27;2.15;;;;;;;-144.47;54.35;53249.38;4996292;28;20057;-64
2022/07/17 04:33:18;;;;;;;10.57;1.95;;;;;;;-144.47;54.34;53231.50;4998699;28;20109;-65
2022/07/17 04:35:44;;;;;;;11.55;2.97;;;;;;;-144.47;54.25;53229.50;5006821;28;20037;-66
2022/07/17 04:38:09;;;;;;;5.22;2.15;;;;;;;-144.47;54.13;53235.47;5008620;28;20033;-64
2022/07/17 04:40:36;;;;;;;13.35;2.25;;;;;;;-144.47;53.87;53215.59;5005226;28;20022;-64
2022/07/17 04:43:05;;;;;;;15.43;1.88;;;;;;;-144.47;53.58;53241.44;4979333;28;20037;-63
2022/07/17 04:45:31;;;;;;;;;;;;;;;-144.47;53.59;53277.19;4992901;28;20031;-61
2022/07/17 04:47:57;;;;;;;4.70;1.63;;;;;;;-144.47;53.46;53235.47;4973944;28;20004;-65
2022/07/17 04:50:23;;;;;;;12.35;1.73;;;;;;;-144.47;53.49;53249.38;4996309;28;20096;-62
2022/07/17 04:52:48;;;;;;;9.05;1.73;;;;;;;-144.47;53.46;53267.25;4992974;28;20417;-65
2022/07/17 04:55:14;;;;;;;12.82;2.10;;;;;;;-144.47;53.22;53251.34;4995716;28;20037;-64
2022/07/17 04:57:39;;;;;;;7.40;1.70;;;;;;;-144.47;52.94;53247.38;4998166;28;20100;-64
2022/07/17 05:00:06;;;;;;;7.65;1.55;;;;;;;-144.47;52.74;53269.22;4990265;28;20029;-66
2022/07/17 05:02:32;;;;;;;6.55;1.40;;;;;;;-144.47;52.58;53249.38;4988390;28;20097;-64
2022/07/17 05:04:57;;;;;;;7.70;1.52;;;;;;;-144.47;52.52;53209.66;4992395;28;20057;-65
2022/07/17 05:07:23;;;;;;;7.97;1.38;;;;;;;-144.47;52.37;53237.44;4991599;28;20095;-63
2022/07/17 05:09:49;;;;;;;7.97;1.70;;;;;;;-144.47;52.51;53253.34;4994107;28;20054;-64
2022/07/17 05:12:14;;;;;;;8.32;1.55;;;;;;;-144.47;52.32;53239.44;4989248;28;20026;-63
2022/07/17 05:14:40;;;;;;;7.35;1.88;;;;;;;-144.47;52.14;53205.66;4988456;28;20031;-63
2022/07/17 05:17:05;;;;;;;10.35;1.85;;;;;;;-144.47;52.13;53213.63;4987585;28;20038;-65
2022/07/17 05:19:30;;;;;;;8.35;1.90;;;;;;;-144.47;52.04;53213.63;4983555;28;20034;-64
2022/07/17 05:21:56;;;;;;;11.05;1.90;;;;;;;-144.47;52.04;53237.44;4992488;28;20040;-65
2022/07/17 05:24:21;;;;;;;6.45;1.83;;;;;;;-144.47;52.07;53281.16;4993309;28;20058;-66
2022/07/17 05:26:46;;;;;;;4.78;1.38;;;;;;;-144.47;51.97;53241.44;4988976;28;20153;-66
2022/07/17 05:29:12;;;;;;;6.22;1.77;;;;;;;-144.47;52.24;53213.63;4989378;28;20025;-62
2022/07/17 05:31:37;;;;;;;6.72;1.27;;;;;;;-144.47;52.29;53245.41;4992338;28;20060;-66
2022/07/17 05:34:02;;;;;;;7.90;1.65;;;;;;;-144.47;52.44;53267.25;4987310;28;20029;-63
2022/07/17 05:36:28;;;;;;;7.47;1.40;;;;;;;-144.47;52.03;53221.56;4984394;28;20048;-64
2022/07/17 05:38:53;;;;;;;6.15;1.63;;;;;;;-144.47;51.93;53233.47;4981452;28;20281;-65
2022/07/17 05:41:18;;;;;;;8.60;1.60;;;;;;;-144.47;51.60;53257.31;4982566;28;20037;-61
2022/07/17 05:43:44;;;;;;;8.18;1.70;;;;;;;-144.47;51.37;53203.69;4993196;28;20110;-65
2022/07/17 05:46:09;;;;;;;10.15;1.42;;;;;;;-144.47;51.18;53245.41;4984757;28;20107;-63
2022/07/17 05:48:34;;;;;;;3.67;1.40;;;;;;;-144.47;51.07;53229.50;4988714;28;20369;-65
2022/07/17 05:51:00;;;;;;;4.70;1.13;;;;;;;-144.47;50.66;53191.78;4992403;28;20073;-64
2022/07/17 05:53:25;;;;;;;4.63;1.42;;;;;;;-144.47;50.18;53203.69;4992737;28;20105;-65
2022/07/17 05:55:51;;;;;;;6.25;1.48;;;;;;;-144.47;49.88;53231.50;4993527;28;20022;-64
2022/07/17 05:58:16;;;;;;;4.68;1.20;;;;;;;-144.47;50.10;53245.41;4991761;28;20030;-64
2022/07/17 06:00:42;;;;;;;7.43;1.90;;;;;;;-144.47;50.11;53241.44;4996381;28;20171;-66
2022/07/17 06:03:07;;;;;;;9.25;1.83;;;;;;;-144.47;49.78;53209.66;4991983;28;20392;-63
2022/07/17 06:05:33;;;;;;;7.60;1.65;;;;;;;-144.47;49.33;53237.44;4993178;28;20071;-65
2022/07/17 06:07:59;;;;;;;5.07;2.00;;;;;;;-144.47;49.20;53253.34;4998764;28;20037;-62
2022/07/17 06:10:25;;;;;;;10.30;1.42;;;;;;;-144.47;48.56;53239.44;4990825;28;20061;-66
2022/07/17 06:12:54;;;;;;;9.00;1.63;;;;;;;-144.47;48.71;53205.66;4984192;28;20497;-64
2022/07/17 06:15:21;;;;;;;3.88;1.17;;;;;;;-144.47;48.06;53239.44;4984995;28;20040;-65
2022/07/17 06:17:47;;;;;;;6.50;1.40;;;;;;;-144.47;47.94;53237.44;4993833;28;20022;-65
2022/07/17 06:20:14;;;;;;;8.35;1.20;;;;;;;-144.47;47.34;53229.50;4987129;28;20043;-66
2022/07/17 06:22:40;;;;;;;7.40;1.45;;;;;;;-144.47;47.12;53195.75;4987799;28;20022;-65
2022/07/17 06:25:07;;;;;;;4.82;1.25;;;;;;;-144.47;47.07;53227.53;4983930;28;20029;-66
2022/07/17 06:27:32;;;;;;;6.97;1.58;;;;;;;-144.47;46.95;53209.66;4988932;28;20026;-66
2022/07/17 06:29:58;;;;;;;7.88;1.48;;;;;;;-144.47;46.47;53173.88;4997092;28;20033;-64
2022/07/17 06:32:24;;;;;;;6.07;1.20;;;;;;;-144.47;46.82;53181.84;4996891;28;20042;-65
2022/07/17 06:34:50;;;;;;;9.00;2.30;;;;;;;-144.47;46.57;53193.75;4992905;28;20496;-64
2022/07/17 06:37:15;;;;;;;6.65;1.30;;;;;;;-144.47;46.67;53221.56;4997816;28;20086;-64
2022/07/17 06:39:40;;;;;;;9.95;1.75;;;;;;;-144.47;47.04;53197.72;4993044;28;20830;-63
2022/07/17 06:42:06;;;;;;;11.18;1.23;;;;;;;-144.47;46.16;53233.47;4987471;28;20642;-65
2022/07/17 06:44:31;;;;;;;13.40;1.40;;;;;;;-144.47;46.30;53241.44;5002405;28;20408;-64
2022/07/17 06:46:57;;;;;;;18.20;2.50;;;;;;;-144.47;46.41;53207.66;4992534;28;20017;-64
2022/07/17 06:49:22;;;;;;;5.15;1.02;;;;;;;-144.47;46.19;53209.66;4983406;28;20057;-65
2022/07/17 06:51:48;;;;;;;4.60;1.30;;;;;;;-144.47;46.07;53225.53;4986544;28;20064;-62
2022/07/17 06:54:16;;;;;;;6.70;1.10;;;;;;;-144.47;46.17;53181.84;4985239;28;20113;-64
2022/07/17 06:56:42;;;;;;;7.10;1.25;;;;;;;-144.47;45.95;53191.78;4985284;28;20034;-66
2022/07/17 06:59:07;;;;;;;7.85;1.20;;;;;;;-144.47;46.04;53197.72;4981535;28;20063;-61
2022/07/17 07:01:37;;;;;;;9.80;1.45;;;;;;;-144.47;45.92;53171.91;4990994;28;20018;-64
2022/07/17 07:04:03;;;;;;;9.23;1.30;;;;;;;-144.47;45.32;53163.97;4985188;28;20073;-67
2022/07/17 07:06:30;;;;;;;5.03;1.15;;;;;;;-144.47;45.10;53199.72;4988691;28;20149;-65
2022/07/17 07:08:57;;;;;;;5.65;1.38;;;;;;;-144.47;45.41;53205.66;4987458;28;20022;-66
2022/07/17 07:11:23;;;;;;;10.32;2.58;;;;;;;-144.47;45.28;53209.66;4981256;28;20027;-65
2022/07/17 07:13:48;;;;;;;13.05;1.75;;;;;;;-144.47;45.39;53171.91;4991069;28;20022;-62
2022/07/17 07:16:13;;;;;;;5.28;1.50;;;;;;;-144.47;45.28;53199.72;4983719;28;20027;-62
2022/07/17 07:18:39;;;;;;;7.30;1.35;;;;;;;-144.47;44.76;53201.69;4988347;28;20632;-64
2022/07/17 07:21:04;;;;;;;4.47;1.35;;;;;;;-144.47;44.76;53179.84;4984220;28;20127;-64
2022/07/17 07:23:29;;;;;;;8.38;1.33;;;;;;;-144.47;44.98;53189.78;4981147;28;20018;-63
2022/07/17 07:25:55;;;;;;;8.57;1.08;;;;;;;-144.47;44.76;53221.56;4982548;28;20022;-64
2022/07/17 07:28:20;;;;;;;8.00;1.35;;;;;;;-144.47;44.67;53213.63;4976584;28;20035;-65
2022/07/17 07:30:46;;;;;;;7.13;1.60;;;;;;;-144.47;44.62;53181.84;4999238;28;20113;-63
2022/07/17 07:33:11;;;;;;;2.60;1.00;;;;;;;-144.47;44.34;53173.88;4982535;28;20027;-65
2022/07/17 07:35:37;;;;;;;7.05;1.08;;;;;;;-144.47;44.34;53225.53;4981787;28;20027;-66
2022/07/17 07:38:03;;;;;;;5.72;1.30;;;;;;;-144.47;44.02;53201.69;4986789;28;20841;-66
2022/07/17 07:40:30;;;;;;;7.28;1.30;;;;;;;-144.47;43.86;53215.59;4975779;28;20031;-63
2022/07/17 07:42:56;;;;;;;6.50;1.50;;;;;;;-144.47;43.90;53187.78;4980058;28;20622;-66
2022/07/17 07:45:21;;;;;;;4.95;1.10;;;;;;;-144.47;43.67;53173.88;4985772;28;20042;-66
2022/07/17 07:47:50;;;;;;;3.72;0.90;;;;;;;-144.47;43.73;53158.00;4984781;28;20026;-63
2022/07/17 07:50:15;;;;;;;6.07;1.25;;;;;;;-144.47;43.58;53150.06;4986322;28;20026;-65
2022/07/17 07:52:41;;;;;;;6.53;1.23;;;;;;;-144.47;43.59;53211.63;4989451;28;20128;-65
2022/07/17 07:55:08;;;;;;;5.55;0.88;;;;;;;-144.47;43.69;53209.66;4984452;28;20025;-62
2022/07/17 07:57:34;;;;;;;12.32;1.73;;;;;;;-144.47;43.76;53187.78;4981544;28;20101;-64
2022/07/17 08:00:00;;;;;;;3.03;0.95;;;;;;;-144.47;43.76;53156.00;4974686;28;20034;-64
2022/07/17 08:02:25;;;;;;;5.90;0.90;;;;;;;-144.47;43.68;53209.66;4976538;28;20049;-66
2022/07/17 08:04:51;;;;;;;5.45;1.30;;;;;;;-144.47;43.58;53207.66;4973943;28;20473;-66
2022/07/17 08:07:16;;;;;;;10.98;1.70;;;;;;;-144.47;43.65;53179.84;4963530;28;20109;-66
2022/07/17 08:09:42;;;;;;;7.53;1.17;;;;;;;-144.47;43.33;53169.91;4973938;28;20022;-66
2022/07/17 08:12:07;;;;;;;4.70;1.40;;;;;;;-144.47;43.12;53169.91;4974773;28;20447;-64
2022/07/17 08:14:32;;;;;;;4.43;1.38;;;;;;;-144.47;42.97;53169.91;4974580;28;20027;-66
2022/07/17 08:16:58;;;;;;;9.50;1.55;;;;;;;-144.47;43.01;53181.84;4973421;28;20027;-63
2022/07/17 08:19:23;;;;;;;11.90;1.90;;;;;;;-144.47;42.69;53161.97;4976040;28;20035;-65
2022/07/17 08:21:49;;;;;;;12.13;2.10;;;;;;;-144.47;42.50;53187.78;4977077;28;20054;-64
2022/07/17 08:24:15;;;;;;;8.68;1.58;;;;;;;-144.47;42.25;53179.84;4976704;28;20050;-66
2022/07/17 08:26:41;;;;;;;9.32;1.50;;;;;;;-144.47;42.41;53161.97;4972265;28;20073;-64
2022/07/17 08:29:06;;;;;;;4.22;1.30;;;;;;;-144.47;42.11;53173.88;4978771;28;20096;-64
2022/07/17 08:31:32;;;;;;;5.90;2.35;;;;;;;-144.47;41.98;53167.94;4973238;28;20033;-64
2022/07/17 08:34:00;;;;;;;6.60;1.05;;;;;;;-144.47;41.76;53161.97;4976323;28;20026;-65
2022/07/17 08:36:25;;;;;;;5.45;1.35;;;;;;;-144.47;41.70;53130.19;4973699;28;20025;-66
2022/07/17 08:38:50;;;;;;;7.00;1.30;;;;;;;-144.47;41.20;53197.72;4975449;28;20089;-65
2022/07/17 08:41:17;;;;;;;10.00;1.35;;;;;;;-144.47;41.66;53177.88;4971043;28;20475;-64
2022/07/17 08:43:44;;;;;;;12.63;1.35;;;;;;;-144.47;41.48;53142.09;4972099;28;20109;-65
2022/07/17 08:46:12;;;;;;;9.10;1.20;;;;;;;-144.47;40.51;53160.00;4978549;28;20101;-64
2022/07/17 08:48:44;;;;;;;2.63;0.90;;;;;;;-144.47;40.36;53189.78;4988618;28;20495;-66
2022/07/17 08:51:09;;;;;;;6.03;1.27;;;;;;;-144.47;40.80;53193.75;4988178;28;20037;-64
2022/07/17 08:53:35;;;;;;;4.43;0.98;;;;;;;-144.47;40.71;53150.06;4972104;28;20377;-66
2022/07/17 08:56:00;;;;;;;10.90;2.50;;;;;;;-144.47;40.25;53179.84;4991759;28;20534;-66
2022/07/17 08:58:26;;;;;;;6.07;1.40;;;;;;;-144.47;39.80;53122.25;4970063;28;20038;-68
2022/07/17 09:00:52;;;;;;;9.48;1.38;;;;;;;-144.47;39.43;53152.03;4986603;28;20101;-66
2022/07/17 09:03:17;;;;;;;7.05;1.08;;;;;;;-144.47;39.82;53154.03;4980567;28;20018;-66
2022/07/17 09:05:43;;;;;;;11.27;1.80;;;;;;;-144.47;39.71;53161.97;4980558;28;20342;-68
2022/07/17 09:08:16;;;;;;;9.57;1.50;;;;;;;-144.47;39.41;53156.00;4994800;28;20169;-66
2022/07/17 09:10:45;;;;;;;7.80;1.58;;;;;;;-144.47;39.15;53146.09;4989325;28;20045;-65
2022/07/17 09:13:24;;;;;;;7.95;1.20;;;;;;;-144.47;38.67;53156.00;4981360;28;20027;-64
2022/07/17 09:15:52;;;;;;;6.13;1.25;;;;;;;-144.47;39.09;53171.91;5003364;23;20511;-68
2022/07/17 09:18:18;;;;;;;6.45;1.40;;;;;;;-144.47;39.28;53165.94;4983977;28;20060;-66
2022/07/17 09:20:49;;;;;;;6.90;1.58;;;;;;;-144.47;39.12;53156.00;4994080;28;20030;-66
2022/07/17 09:23:17;;;;;;;5.97;1.00;;;;;;;-144.47;38.82;53160.00;4984234;28;20026;-66
2022/07/17 09:25:44;;;;;;;6.43;1.05;;;;;;;-144.47;38.57;53148.06;4981926;28;20034;-67
2022/07/17 09:28:13;;;;;;;4.13;1.08;;;;;;;-144.47;37.19;53112.31;4974389;28;20022;-66
2022/07/17 09:30:40;;;;;;;;;;;;;;;-144.47;38.29;53148.06;4970580;28;20026;-67
2022/07/17 09:33:19;;;;;;;11.15;2.05;;;;;;;-144.47;36.86;53150.06;4973322;28;20142;-68
2022/07/17 09:35:45;;;;;;;7.63;1.40;;;;;;;-144.47;38.04;53161.97;4977619;28;20027;-65
2022/07/17 09:38:13;;;;;;;4.18;1.00;;;;;;;-144.47;36.25;53173.88;4975397;28;20503;-67
2022/07/17 09:43:23;;;;;;;10.70;2.42;;;;;;;-144.47;37.67;53124.22;4973650;28;20037;-67
2022/07/17 09:45:48;;;;;;;6.20;1.08;;;;;;;-144.47;37.30;53146.09;4975153;28;20038;-68
2022/07/17 09:48:15;;;;;;;5.97;1.33;;;;;;;-144.47;36.91;53096.41;4975155;28;20037;-67
2022/07/17 09:50:40;;;;;;;13.95;2.50;;;;;;;-144.47;36.83;53158.00;4974273;28;20026;-65
2022/07/17 09:53:07;;;;;;;8.13;1.10;;;;;;;-144.47;37.00;53152.03;4972554;28;20551;-67
2022/07/17 09:55:33;;;;;;;9.70;1.70;;;;;;;-144.47;36.80;53148.06;4976726;28;20066;-68
2022/07/17 09:58:01;;;;;;;6.65;1.30;;;;;;;-144.47;36.15;53146.09;4973086;28;20463;-66
2022/07/17 10:00:28;;;;;;;4.65;1.10;;;;;;;-144.47;36.61;53090.47;4975659;28;20404;-68
2022/07/17 10:02:53;;;;;;;6.85;1.42;;;;;;;-144.47;36.18;53126.22;4972495;28;20030;-67
2022/07/17 10:05:19;;;;;;;11.20;2.03;;;;;;;-144.47;36.18;53160.00;4976815;28;20038;-68
2022/07/17 10:07:46;;;;;;;5.43;1.10;;;;;;;-144.47;35.44;53134.16;4973134;28;20113;-68
2022/07/17 10:10:13;;;;;;;10.48;2.67;;;;;;;-144.47;35.49;53120.25;4973677;28;20029;-67
2022/07/17 10:12:41;;;;;;;12.05;1.60;;;;;;;-144.47;35.52;53084.50;4972555;28;20022;-66
2022/07/17 10:15:08;;;;;;;5.22;0.95;;;;;;;-144.47;35.04;53098.41;4973832;28;20029;-67
2022/07/17 10:17:34;;;;;;;7.93;1.88;;;;;;;-144.47;34.89;53128.22;4969499;28;20039;-69
2022/07/17 10:20:00;;;;;;;12.05;1.65;;;;;;;-144.47;34.56;53104.38;5001575;28;20110;-67
2022/07/17 10:22:26;;;;;;;7.18;1.40;;;;;;;-144.47;34.17;53106.34;5001209;28;20080;-68
2022/07/17 10:24:54;;;;;;;4.85;1.02;;;;;;;-144.47;33.20;53132.19;4995997;28;20022;-66
2022/07/17 10:27:20;;;;;;;7.00;1.10;;;;;;;-144.47;33.89;53106.34;5008576;28;20033;-65
2022/07/17 10:29:45;;;;;;;7.47;1.10;;;;;;;-144.47;33.54;53100.41;4969851;28;20038;-68
2022/07/17 10:32:16;;;;;;;5.90;1.35;;;;;;;-144.47;33.94;53102.38;4974348;28;20130;-69
2022/07/17 10:34:43;;;;;;;5.63;1.10;;;;;;;-144.47;33.32;53140.13;4968318;28;20161;-66
2022/07/17 10:37:20;;;;;;;8.65;1.83;;;;;;;-144.47;33.30;53122.25;4992192;28;20026;-67
2022/07/17 10:39:53;;;;;;;7.63;1.48;;;;;;;-144.47;32.61;53106.34;4991401;28;20030;-67
2022/07/17 10:42:46;;;;;;;4.38;0.82;;;;;;;-144.47;32.36;53104.38;4979697;28;20042;-65
2022/07/17 10:45:23;;;;;;;11.13;1.15;;;;;;;-144.47;31.96;53130.19;4996172;28;20056;-67
2022/07/17 10:47:57;;;;;;;7.07;1.42;;;;;;;-144.47;32.12;53078.53;4990204;28;20257;-66
2022/07/17 10:50:29;;;;;;;4.45;1.02;;;;;;;-144.47;32.43;53086.50;4985367;28;20109;-67
2022/07/17 10:52:57;;;;;;;4.90;0.95;;;;;;;-144.47;33.02;53148.06;4988767;28;20033;-69
2022/07/17 10:55:23;;;;;;;5.95;1.05;;;;;;;-144.47;32.67;53128.22;4982277;28;20072;-67
2022/07/17 10:57:49;;;;;;;5.40;1.05;;;;;;;-144.47;32.78;53104.38;4979261;28;20062;-65
2022/07/17 11:00:16;;;;;;;7.72;1.25;;;;;;;-144.47;32.83;53104.38;4980675;28;20030;-66
2022/07/17 11:02:42;;;;;;;7.38;1.40;;;;;;;-144.47;32.60;53112.31;4989865;28;20026;-64
2022/07/17 11:05:09;;;;;;;5.72;1.40;;;;;;;-144.47;32.32;53102.38;4991024;28;20093;-66
2022/07/17 11:07:34;;;;;;;5.70;1.05;;;;;;;-144.47;32.06;53118.28;4993002;28;20088;-65
2022/07/17 11:10:00;;;;;;;6.88;1.05;;;;;;;-144.47;30.76;53094.44;4981503;28;20022;-65
2022/07/17 11:12:35;;;;;;;9.52;1.20;;;;;;;-144.47;31.08;53076.56;4989854;28;20041;-65
2022/07/17 11:15:02;;;;;;;5.25;1.40;;;;;;;-144.47;31.31;53078.53;4983167;28;20169;-66
2022/07/17 11:17:27;;;;;;;8.25;1.23;;;;;;;-144.47;31.66;53106.34;4985714;28;20050;-65